Time;durP1;ratioP1;P1;durP2;ratioP2;P2;SDS_P1;SDS_P2;PMS_P1;PMS_P2;Temp;Humidity;BMP_temperature;BMP_pressure;BME280_temperature;BME280_humidity;BME280_pressure;Samples;Min_cycle;Max_cycle;Signal;HPM_P1;HPM_P2
2021/10/16 18:30:55;;;;;;;11.23;5.78;;;;;;;22.92;60.59;97339.09;5102820;27;20384;-65
2021/10/16 18:33:21;;;;;;;11.87;6.30;;;;;;;22.91;60.54;97343.81;5090109;28;20375;-76
2021/10/16 18:35:48;;;;;;;14.15;5.63;;;;;;;23.22;59.26;97336.53;5074885;28;140671;-75
2021/10/16 18:39:53;;;;;;;11.07;5.63;;;;;;;-143.81;100.00;65142.69;5108290;27;20916;-74
2021/10/16 18:42:19;;;;;;;11.73;5.55;;;;;;;24.20;nan;97327.78;5107977;28;20054;-76
2021/10/16 18:44:46;;;;;;;14.80;5.80;;;;;;;22.90;nan;97331.22;5057373;28;20139;-74
2021/10/16 18:47:12;;;;;;;14.18;10.55;;;;;;;13.16;nan;97354.97;5063446;28;20209;-65
2021/10/16 18:49:38;;;;;;;16.03;11.67;;;;;;;8.27;nan;97356.66;5038531;28;20064;-71
2021/10/16 18:52:04;;;;;;;18.80;13.20;;;;;;;7.80;nan;97354.53;5064356;28;20423;-70
2021/10/16 18:54:30;;;;;;;19.13;13.10;;;;;;;7.64;nan;97355.97;5064410;28;20097;-70
2021/10/16 18:56:56;;;;;;;20.95;13.82;;;;;;;7.53;nan;97365.38;5062764;28;20047;-70
2021/10/16 18:59:22;;;;;;;22.55;13.38;;;;;;;7.45;nan;97356.91;5061616;28;20025;-70
2021/10/16 19:01:48;;;;;;;22.93;12.93;;;;;;;7.42;nan;97357.50;5060678;28;87783;-70
2021/10/16 19:04:15;;;;;;;24.88;13.95;;;;;;;7.51;nan;97359.50;5064926;28;20043;-70
2021/10/16 19:06:42;;;;;;;24.10;12.80;;;;;;;7.37;nan;97349.53;5047731;28;20467;-70
2021/10/16 19:09:08;;;;;;;24.23;12.43;;;;;;;7.34;nan;97352.81;5065583;28;20100;-70
2021/10/16 19:11:35;;;;;;;25.17;13.05;;;;;;;7.40;nan;97359.69;5065213;28;20045;-70
2021/10/16 19:14:01;;;;;;;27.23;13.13;;;;;;;7.37;nan;97344.16;5063406;28;20056;-70
2021/10/16 19:16:27;;;;;;;29.88;14.52;;;;;;;7.34;nan;97358.22;5048689;28;20078;-70
2021/10/16 19:18:53;;;;;;;30.45;14.57;;;;;;;7.39;nan;97355.41;5065292;28;20049;-69
2021/10/16 19:21:19;;;;;;;30.35;14.35;;;;;;;7.34;nan;97362.81;5048507;28;20382;-72
2021/10/16 19:23:45;;;;;;;27.40;12.90;;;;;;;7.30;nan;97362.63;5048605;28;20063;-70
2021/10/16 19:26:12;;;;;;;28.50;13.10;;;;;;;7.30;nan;97356.44;5065906;28;20438;-70
2021/10/16 19:28:38;;;;;;;30.33;14.23;;;;;;;7.19;nan;97368.50;5049343;28;20031;-70
2021/10/16 19:31:04;;;;;;;27.67;13.57;;;;;;;7.14;nan;97366.72;5032286;28;20029;-73
2021/10/16 19:33:30;;;;;;;28.52;13.52;;;;;;;7.11;nan;97356.53;5048753;28;20536;-73
2021/10/16 19:35:57;;;;;;;29.95;14.48;;;;;;;7.15;nan;97357.53;5030943;28;20083;-74
2021/10/16 19:38:23;;;;;;;30.92;13.98;;;;;;;7.08;nan;97363.31;5028486;28;20384;-72
2021/10/16 19:40:49;;;;;;;30.23;14.60;;;;;;;7.20;nan;97365.50;5056019;28;74595;-73
2021/10/16 19:45:08;;;;;;;28.75;13.75;;;;;;;7.12;100.00;97368.88;5074140;27;81688;-71
2021/10/16 19:47:34;;;;;;;31.53;13.73;;;;;;;7.07;100.00;97377.06;5065218;28;20051;-71
2021/10/16 19:50:00;;;;;;;30.85;14.40;;;;;;;7.13;100.00;97377.75;5082619;28;20040;-71
2021/10/16 19:52:25;;;;;;;33.47;14.40;;;;;;;7.09;100.00;97380.28;5066381;28;20110;-72
2021/10/16 19:54:51;;;;;;;33.07;14.47;;;;;;;7.10;100.00;97379.19;5081975;28;20506;-71
2021/10/16 19:57:17;;;;;;;30.35;14.00;;;;;;;7.07;100.00;97379.75;5060132;28;20079;-72
2021/10/16 19:59:42;;;;;;;29.60;13.80;;;;;;;7.09;100.00;97377.59;5063873;28;20052;-73
2021/10/16 20:02:08;;;;;;;31.17;14.20;;;;;;;7.04;100.00;97369.59;5060483;28;20917;-72
2021/10/16 20:04:34;;;;;;;30.83;13.53;;;;;;;6.98;100.00;97374.28;5066774;28;20029;-76
2021/10/16 20:06:59;;;;;;;32.22;14.55;;;;;;;6.99;100.00;97372.38;5052590;28;20021;-74
2021/10/16 20:09:25;;;;;;;32.63;14.53;;;;;;;6.97;100.00;97375.38;5065733;28;20017;-76
2021/10/16 20:11:51;;;;;;;31.40;14.50;;;;;;;6.95;100.00;97374.09;5063394;28;20406;-75
2021/10/16 20:14:16;;;;;;;34.22;14.38;;;;;;;6.89;100.00;97376.06;5078746;28;20120;-76
2021/10/16 20:16:42;;;;;;;30.10;13.83;;;;;;;6.79;100.00;97376.25;5059893;28;20037;-77
2021/10/16 20:19:07;;;;;;;31.40;13.83;;;;;;;6.76;100.00;97371.47;5062867;28;20036;-76
2021/10/16 20:21:33;;;;;;;31.52;14.55;;;;;;;6.73;100.00;97368.56;5075136;28;20115;-72
2021/10/16 20:23:58;;;;;;;31.63;14.67;;;;;;;6.78;100.00;97363.91;5063951;28;20142;-75
2021/10/16 20:26:24;;;;;;;32.93;15.03;;;;;;;6.86;100.00;97365.91;5070583;28;20450;-76
2021/10/16 20:28:49;;;;;;;32.33;14.23;;;;;;;6.76;100.00;97370.66;5067568;28;20374;-76
2021/10/16 20:31:14;;;;;;;35.27;14.83;;;;;;;6.72;100.00;97367.78;5069919;28;20028;-75
2021/10/16 20:33:39;;;;;;;34.90;14.35;;;;;;;6.71;100.00;97362.69;5067598;28;20284;-75
2021/10/16 20:36:05;;;;;;;32.33;14.07;;;;;;;6.63;100.00;97367.66;5069707;28;20036;-75
2021/10/16 20:38:30;;;;;;;32.23;15.13;;;;;;;6.65;100.00;97362.00;5060254;28;20078;-76
2021/10/16 20:40:58;;;;;;;32.20;15.30;;;;;;;6.68;100.00;97367.56;5052069;28;20387;-76
2021/10/16 20:43:24;;;;;;;35.15;15.93;;;;;;;6.74;100.00;97360.22;5057965;28;20033;-76
2021/10/16 20:45:49;;;;;;;36.53;15.77;;;;;;;6.72;100.00;97366.97;5055098;28;20025;-76
2021/10/16 20:48:14;;;;;;;35.10;15.73;;;;;;;6.80;100.00;97360.91;5072207;28;20100;-76
2021/10/16 20:50:40;;;;;;;34.75;15.25;;;;;;;6.70;100.00;97361.88;5062352;28;20029;-75
2021/10/16 20:53:05;;;;;;;35.70;15.95;;;;;;;6.59;100.00;97363.97;5060023;28;20028;-76
2021/10/16 20:55:31;;;;;;;33.80;15.50;;;;;;;6.54;100.00;97355.97;5049554;28;20048;-73
2021/10/16 20:57:56;;;;;;;33.70;15.37;;;;;;;6.50;100.00;97357.69;5045820;28;20025;-73
2021/10/16 21:00:22;;;;;;;32.03;15.73;;;;;;;6.42;100.00;97361.03;5047142;28;20668;-73
2021/10/16 21:02:47;;;;;;;33.37;14.63;;;;;;;6.45;100.00;97355.09;5069394;28;20126;-73
2021/10/16 21:05:12;;;;;;;34.53;15.47;;;;;;;6.43;100.00;97354.56;5053278;28;20017;-74
2021/10/16 21:07:38;;;;;;;32.73;15.13;;;;;;;6.56;100.00;97361.06;5053648;28;20071;-74
2021/10/16 21:10:04;;;;;;;36.63;15.90;;;;;;;6.52;100.00;97363.56;5057125;28;20025;-74
2021/10/16 21:12:30;;;;;;;35.08;15.38;;;;;;;6.54;100.00;97355.97;5047863;28;20024;-74
2021/10/16 21:14:55;;;;;;;32.80;14.80;;;;;;;6.51;100.00;97351.22;5049720;28;20116;-75
2021/10/16 22:11:36;;;;;;;55.60;22.67;;;;;;;6.07;100.00;97340.13;5063530;28;20894;-70
2021/10/16 22:14:02;;;;;;;55.53;20.73;;;;;;;6.02;100.00;97334.84;5050728;28;20041;-71
2021/10/16 22:16:27;;;;;;;57.95;21.20;;;;;;;6.03;100.00;97323.81;5049436;28;20022;-71
2021/10/16 22:18:52;;;;;;;53.77;20.50;;;;;;;5.95;100.00;97323.66;5050292;28;20027;-71
2021/10/16 22:21:18;;;;;;;64.90;23.20;;;;;;;6.08;100.00;97328.28;5009421;28;20136;-71
2021/10/16 22:23:44;;;;;;;56.00;21.87;;;;;;;6.05;100.00;97326.97;5009829;28;20026;-71
